createdAt,value
2023-01-12T11:23:46.797Z,14.02
2023-01-12T11:26:22.248Z,14.95
2023-01-12T11:28:52.980Z,15.93
2023-01-12T11:31:38.895Z,14.52
2023-01-12T11:34:16.870Z,15.82
2023-01-12T11:36:51.982Z,15.73
2023-01-12T11:39:23.450Z,15.02
2023-01-12T11:42:18.122Z,15.23
2023-01-12T11:44:57.248Z,15.95
2023-01-12T11:47:28.375Z,16.10
2023-01-12T11:50:04.990Z,15.80
2023-01-12T11:52:32.505Z,15.13
2023-01-12T11:55:00.758Z,12.95
2023-01-12T11:57:27.505Z,15.80
2023-01-12T12:00:12.882Z,13.65
2023-01-12T12:03:14.347Z,13.75
2023-01-12T12:06:03.420Z,16.85
2023-01-12T12:08:36.198Z,14.60
2023-01-12T12:11:07.796Z,15.15
2023-01-12T12:14:00.028Z,14.60
2023-01-12T12:16:41.733Z,15.70
2023-01-12T12:19:27.241Z,14.93
2023-01-12T12:22:18.816Z,14.63
2023-01-12T12:25:24.448Z,14.77
2023-01-12T12:28:09.799Z,14.07
2023-01-12T12:30:48.676Z,14.77
2023-01-12T12:33:30.574Z,15.57
2023-01-12T12:35:57.372Z,16.52
2023-01-12T12:38:47.369Z,15.85
2023-01-12T12:41:49.091Z,16.73
2023-01-12T12:44:51.626Z,15.38
2023-01-12T12:47:42.045Z,15.45
2023-01-12T12:50:21.693Z,14.85
2023-01-12T12:52:53.330Z,18.42
2023-01-12T12:55:20.305Z,15.55
2023-01-12T12:58:05.664Z,16.35
2023-01-12T13:00:42.674Z,19.92
2023-01-12T13:03:10.291Z,16.05
2023-01-12T13:05:44.467Z,16.20
2023-01-12T13:08:34.176Z,15.93
2023-01-12T13:11:02.146Z,14.45
2023-01-12T13:13:37.857Z,14.88
2023-01-12T13:16:19.727Z,15.60
2023-01-12T13:18:52.515Z,16.60
2023-01-12T13:21:56.147Z,15.68
2023-01-12T13:24:29.016Z,15.38
2023-01-12T13:26:58.743Z,12.25
2023-01-12T13:29:28.348Z,13.07
2023-01-12T13:32:19.531Z,13.40
2023-01-12T13:34:46.550Z,14.10
2023-01-12T13:37:18.963Z,12.80
2023-01-12T13:40:17.133Z,12.10
2023-01-12T13:43:06.813Z,11.80
2023-01-12T13:45:35.043Z,13.80
2023-01-12T13:48:04.886Z,12.88
2023-01-12T13:50:34.818Z,10.65
2023-01-12T13:53:04.053Z,11.43
2023-01-12T13:55:33.151Z,11.13
2023-01-12T13:58:14.506Z,10.05
2023-01-12T14:00:44.388Z,10.20
2023-01-12T14:03:24.993Z,11.82
2023-01-12T14:06:43.924Z,12.27
2023-01-12T14:09:24.401Z,9.50
2023-01-12T14:12:21.061Z,10.07
2023-01-12T14:15:37.549Z,10.32
2023-01-12T14:18:14.250Z,10.32
2023-01-12T14:20:45.835Z,11.38
2023-01-12T14:23:33.625Z,10.40
2023-01-12T14:26:06.155Z,13.25
2023-01-12T14:28:33.339Z,12.45
2023-01-12T14:31:00.470Z,12.60
2023-01-12T14:33:30.404Z,12.52
2023-01-12T14:36:14.792Z,13.15
2023-01-12T14:38:43.622Z,10.35
2023-01-12T14:41:36.003Z,10.93
2023-01-12T14:44:21.443Z,9.98
2023-01-12T14:46:51.383Z,10.57
2023-01-12T14:49:25.643Z,10.80
2023-01-12T14:51:54.534Z,10.38
2023-01-12T14:54:32.824Z,10.85
2023-01-12T14:57:03.668Z,9.48
2023-01-12T14:59:43.676Z,10.45
2023-01-12T15:02:13.327Z,13.20
2023-01-12T15:04:59.138Z,10.68
2023-01-12T15:07:39.060Z,11.35
2023-01-12T15:10:14.816Z,9.55
2023-01-12T15:12:54.298Z,8.50
2023-01-12T15:15:52.426Z,7.28
2023-01-12T15:18:37.861Z,8.93
2023-01-12T15:21:23.655Z,8.90
2023-01-12T15:24:08.971Z,7.88
2023-01-12T15:26:38.631Z,8.77
2023-01-12T15:29:05.447Z,8.57
2023-01-12T15:31:36.581Z,8.32
2023-01-12T15:34:04.775Z,8.23
2023-01-12T15:36:31.880Z,8.98
2023-01-12T15:38:58.799Z,10.27
2023-01-12T15:41:47.842Z,9.25
2023-01-12T15:44:16.724Z,9.75
2023-01-12T15:46:43.796Z,8.88
2023-01-12T15:49:13.340Z,12.52
2023-01-12T15:51:41.555Z,10.05
2023-01-12T15:54:11.701Z,9.20
2023-01-12T15:56:38.484Z,14.60
2023-01-12T15:59:05.286Z,10.40
2023-01-12T16:01:41.622Z,10.48
2023-01-12T16:07:06.969Z,8.30
2023-01-12T16:09:33.735Z,8.73
2023-01-12T16:12:00.615Z,9.02
2023-01-12T16:14:27.392Z,7.18
2023-01-12T16:16:54.309Z,8.07
2023-01-12T16:19:23.505Z,7.43
2023-01-12T16:21:50.349Z,6.28
2023-01-12T16:24:17.117Z,7.13
2023-01-12T16:26:44.830Z,12.95
2023-01-12T16:29:11.733Z,12.07
2023-01-12T16:31:39.513Z,9.30
2023-01-12T16:34:06.711Z,8.27
2023-01-12T16:36:33.809Z,8.07
2023-01-12T16:39:00.960Z,7.28
2023-01-12T16:41:27.959Z,7.72
2023-01-12T16:43:58.723Z,7.13
2023-01-12T16:46:25.598Z,6.68
2023-01-12T16:48:55.282Z,6.90
2023-01-12T16:51:22.846Z,7.40
2023-01-12T16:53:51.422Z,7.13
2023-01-12T16:56:18.436Z,6.72
2023-01-12T16:58:48.754Z,7.35
2023-01-12T17:01:22.265Z,7.35
2023-01-12T17:03:51.015Z,7.85
2023-01-12T17:06:20.780Z,7.40
2023-01-12T17:08:47.876Z,6.68
2023-01-12T17:11:19.639Z,7.63
2023-01-12T17:13:55.189Z,6.80
2023-01-12T17:16:24.357Z,7.97
2023-01-12T17:18:51.826Z,10.20
2023-01-12T17:21:19.477Z,6.95
2023-01-12T17:23:47.436Z,7.63
2023-01-12T17:26:19.956Z,6.97
2023-01-12T17:28:47.779Z,7.30
2023-01-12T17:31:20.360Z,8.35
2023-01-12T17:33:47.361Z,10.27
2023-01-12T17:36:14.573Z,7.70
2023-01-12T17:38:41.425Z,10.02
2023-01-12T17:41:34.137Z,12.40
2023-01-12T17:44:03.871Z,15.93
2023-01-12T17:46:31.724Z,13.73
2023-01-12T17:49:03.154Z,16.25
2023-01-12T17:51:29.995Z,12.13
2023-01-12T17:53:58.760Z,12.10
2023-01-12T17:56:28.304Z,7.75
2023-01-12T17:58:55.283Z,7.60
2023-01-12T18:01:26.565Z,9.55
2023-01-12T18:03:53.537Z,48.70
2023-01-12T18:06:26.538Z,32.17
2023-01-12T18:08:59.734Z,21.25
2023-01-12T18:11:27.863Z,21.92
2023-01-12T18:13:55.507Z,17.88
2023-01-12T18:16:22.430Z,10.27
2023-01-12T18:18:50.639Z,12.25
2023-01-12T18:21:23.728Z,9.63
2023-01-12T18:23:51.252Z,9.32
2023-01-12T18:26:27.913Z,9.40
2023-01-12T18:28:56.765Z,9.35
2023-01-12T18:31:26.883Z,12.40
2023-01-12T18:34:05.452Z,11.40
2023-01-12T18:36:34.623Z,16.20
2023-01-12T18:39:01.725Z,13.43
2023-01-12T18:41:47.021Z,15.55
2023-01-12T18:44:13.895Z,13.98
2023-01-12T18:47:01.744Z,12.32
2023-01-12T18:49:33.431Z,15.27
2023-01-12T18:52:19.985Z,10.70
2023-01-12T18:54:48.018Z,10.77
2023-01-12T18:57:19.217Z,11.90
2023-01-12T18:59:50.989Z,11.70
2023-01-12T19:02:19.487Z,9.97
2023-01-12T19:04:50.142Z,11.30
2023-01-12T19:07:33.535Z,9.77
2023-01-12T19:10:00.360Z,9.57
2023-01-12T19:12:27.491Z,8.10
2023-01-12T19:15:15.861Z,8.27
2023-01-12T19:17:42.722Z,10.57
2023-01-12T19:20:14.955Z,10.13
2023-01-12T19:23:01.149Z,10.20
2023-01-12T19:25:46.544Z,10.50
2023-01-12T19:28:35.569Z,9.57
2023-01-12T19:31:07.820Z,9.23
2023-01-12T19:33:34.659Z,10.13
2023-01-12T19:36:07.780Z,9.40
2023-01-12T19:38:36.078Z,9.55
2023-01-12T19:41:27.995Z,8.60
2023-01-12T19:43:54.867Z,8.38
2023-01-12T19:46:21.709Z,9.45
2023-01-12T19:48:48.543Z,9.13
2023-01-12T19:51:15.316Z,10.32
2023-01-12T19:53:42.188Z,10.27
2023-01-12T19:56:12.701Z,9.93
2023-01-12T19:58:39.753Z,9.25
2023-01-12T20:01:08.487Z,8.70
2023-01-12T20:03:36.226Z,9.75
2023-01-12T20:06:07.636Z,11.20
2023-01-12T20:08:34.789Z,11.98
2023-01-12T20:11:04.975Z,14.80
2023-01-12T20:13:32.886Z,11.48
2023-01-12T20:16:04.632Z,11.43
2023-01-12T20:18:33.544Z,11.63
2023-01-12T20:21:01.064Z,11.45
2023-01-12T20:23:27.953Z,11.95
2023-01-12T20:25:55.179Z,11.60
2023-01-12T20:28:21.993Z,11.75
2023-01-12T20:30:48.806Z,14.63
2023-01-12T20:33:15.779Z,16.48
2023-01-12T20:35:46.305Z,16.42
2023-01-12T20:38:17.523Z,18.40
2023-01-12T20:40:46.312Z,18.10
2023-01-12T20:43:13.657Z,17.13
2023-01-12T20:45:42.036Z,13.80
2023-01-12T20:48:10.798Z,12.02
2023-01-12T20:50:44.334Z,14.27
2023-01-12T20:53:12.902Z,15.05
2023-01-12T20:55:48.898Z,15.02
2023-01-12T20:58:16.875Z,14.90
2023-01-12T21:00:44.011Z,14.80
2023-01-12T21:03:11.556Z,15.50
2023-01-12T21:05:43.905Z,16.30
2023-01-12T21:08:11.552Z,17.30
2023-01-12T21:10:51.167Z,17.45
2023-01-12T21:13:18.920Z,17.80
2023-01-12T21:15:46.010Z,17.88
2023-01-12T21:18:13.521Z,18.88
2023-01-12T21:20:43.610Z,17.20
2023-01-12T21:23:11.591Z,18.25
2023-01-12T21:25:45.292Z,17.83
2023-01-12T21:28:12.649Z,18.05
2023-01-12T21:30:40.372Z,16.67
2023-01-12T21:33:07.508Z,17.05
2023-01-12T21:35:34.416Z,17.08
2023-01-12T21:38:01.279Z,18.40
2023-01-12T21:40:29.300Z,19.58
